sensor_id;sensor_type;location;lat;lon;timestamp;pressure;altitude;pressure_sealevel;temperature;humidity
56928;BME280;60850;52.502;13.426;2022-07-18T00:01:56;64293.91;;;17.14;97.38
56928;BME280;60850;52.502;13.426;2022-07-18T00:04:23;64294.09;;;17.14;97.22
56928;BME280;60850;52.502;13.426;2022-07-18T00:06:50;64294.59;;;17.14;96.97
56928;BME280;60850;52.502;13.426;2022-07-18T00:09:19;64294.59;;;17.14;96.80
56928;BME280;60850;52.502;13.426;2022-07-18T00:11:47;64294.94;;;17.14;96.70
56928;BME280;60850;52.502;13.426;2022-07-18T00:14:15;64295.22;;;17.14;96.28
56928;BME280;60850;52.502;13.426;2022-07-18T00:16:41;64296.28;;;17.15;96.89
56928;BME280;60850;52.502;13.426;2022-07-18T00:19:08;64296.84;;;17.15;97.17
56928;BME280;60850;52.502;13.426;2022-07-18T00:21:35;64296.78;;;17.15;95.91
56928;BME280;60850;52.502;13.426;2022-07-18T00:24:02;64297.19;;;17.16;95.75
56928;BME280;60850;52.502;13.426;2022-07-18T00:26:30;64298.53;;;17.17;95.87
56928;BME280;60850;52.502;13.426;2022-07-18T00:28:57;64298.94;;;17.17;94.77
56928;BME280;60850;52.502;13.426;2022-07-18T00:31:24;64299.78;;;17.18;95.39
56928;BME280;60850;52.502;13.426;2022-07-18T00:33:51;64300.53;;;17.19;95.08
56928;BME280;60850;52.502;13.426;2022-07-18T00:36:18;64300.94;;;17.19;94.81
56928;BME280;60850;52.502;13.426;2022-07-18T00:38:44;64301.50;;;17.20;94.21
56928;BME280;60850;52.502;13.426;2022-07-18T00:41:14;64302.25;;;17.20;95.06
56928;BME280;60850;52.502;13.426;2022-07-18T00:43:42;64302.66;;;17.21;94.87
56928;BME280;60850;52.502;13.426;2022-07-18T00:46:09;64302.94;;;17.21;94.36
56928;BME280;60850;52.502;13.426;2022-07-18T00:48:41;64302.75;;;17.21;94.62
56928;BME280;60850;52.502;13.426;2022-07-18T00:51:09;64302.75;;;17.21;95.13
56928;BME280;60850;52.502;13.426;2022-07-18T00:53:36;64302.66;;;17.21;95.76
56928;BME280;60850;52.502;13.426;2022-07-18T00:56:04;64302.38;;;17.20;96.27
56928;BME280;60850;52.502;13.426;2022-07-18T00:58:31;64300.88;;;17.19;96.55
56928;BME280;60850;52.502;13.426;2022-07-18T01:00:59;64300.34;;;17.19;96.53
56928;BME280;60850;52.502;13.426;2022-07-18T01:03:44;64298.78;;;17.17;96.51
56928;BME280;60850;52.502;13.426;2022-07-18T01:06:11;64297.81;;;17.16;97.00
56928;BME280;60850;52.502;13.426;2022-07-18T01:08:38;64296.72;;;17.15;97.38
56928;BME280;60850;52.502;13.426;2022-07-18T01:11:08;64295.13;;;17.14;96.94
56928;BME280;60850;52.502;13.426;2022-07-18T01:13:35;64293.53;;;17.12;96.90
56928;BME280;60850;52.502;13.426;2022-07-18T01:16:04;64292.44;;;17.11;97.43
56928;BME280;60850;52.502;13.426;2022-07-18T01:18:31;64290.91;;;17.10;97.29
56928;BME280;60850;52.502;13.426;2022-07-18T01:21:00;64288.78;;;17.08;97.46
56928;BME280;60850;52.502;13.426;2022-07-18T01:23:26;64287.28;;;17.06;98.00
56928;BME280;60850;52.502;13.426;2022-07-18T01:25:53;64285.34;;;17.04;98.73
56928;BME280;60850;52.502;13.426;2022-07-18T01:28:20;64283.13;;;17.02;98.31
56928;BME280;60850;52.502;13.426;2022-07-18T01:30:47;64281.00;;;17.00;98.14
56928;BME280;60850;52.502;13.426;2022-07-18T01:33:14;64278.56;;;16.98;98.48
56928;BME280;60850;52.502;13.426;2022-07-18T01:35:41;64276.41;;;16.96;98.68
56928;BME280;60850;52.502;13.426;2022-07-18T01:38:09;64274.66;;;16.94;99.37
56928;BME280;60850;52.502;13.426;2022-07-18T01:40:36;64272.31;;;16.92;98.74
56928;BME280;60850;52.502;13.426;2022-07-18T01:43:03;64270.50;;;16.90;98.89
56928;BME280;60850;52.502;13.426;2022-07-18T01:45:30;64268.38;;;16.88;99.82
56928;BME280;60850;52.502;13.426;2022-07-18T01:47:57;64265.97;;;16.86;100.00
56928;BME280;60850;52.502;13.426;2022-07-18T01:50:24;64262.94;;;16.84;100.00
56928;BME280;60850;52.502;13.426;2022-07-18T01:52:51;64259.19;;;16.81;100.00
56928;BME280;60850;52.502;13.426;2022-07-18T01:55:19;64255.47;;;16.78;100.00
56928;BME280;60850;52.502;13.426;2022-07-18T01:57:46;64250.97;;;16.74;100.00
56928;BME280;60850;52.502;13.426;2022-07-18T02:00:13;64246.38;;;16.70;100.00
56928;BME280;60850;52.502;13.426;2022-07-18T02:02:40;64241.81;;;16.66;100.00
56928;BME280;60850;52.502;13.426;2022-07-18T02:05:08;64237.28;;;16.62;100.00
56928;BME280;60850;52.502;13.426;2022-07-18T02:07:36;64232.28;;;16.58;100.00
56928;BME280;60850;52.502;13.426;2022-07-18T02:10:05;64227.28;;;16.53;100.00
56928;BME280;60850;52.502;13.426;2022-07-18T02:12:35;64222.00;;;16.49;100.00
56928;BME280;60850;52.502;13.426;2022-07-18T02:15:02;64217.03;;;16.44;100.00
56928;BME280;60850;52.502;13.426;2022-07-18T02:17:30;64212.34;;;16.40;100.00
56928;BME280;60850;52.502;13.426;2022-07-18T02:19:57;64207.53;;;16.36;100.00
56928;BME280;60850;52.502;13.426;2022-07-18T02:22:24;64203.19;;;16.31;100.00
56928;BME280;60850;52.502;13.426;2022-07-18T02:24:51;64197.81;;;16.27;100.00
56928;BME280;60850;52.502;13.426;2022-07-18T02:27:18;64192.69;;;16.22;100.00
56928;BME280;60850;52.502;13.426;2022-07-18T02:29:46;64187.53;;;16.18;100.00
56928;BME280;60850;52.502;13.426;2022-07-18T02:32:13;64182.59;;;16.13;100.00
56928;BME280;60850;52.502;13.426;2022-07-18T02:34:40;64178.06;;;16.09;100.00
56928;BME280;60850;52.502;13.426;2022-07-18T02:37:08;64173.22;;;16.05;100.00
56928;BME280;60850;52.502;13.426;2022-07-18T02:39:36;64168.91;;;16.00;100.00
56928;BME280;60850;52.502;13.426;2022-07-18T02:42:05;64164.41;;;15.96;100.00
56928;BME280;60850;52.502;13.426;2022-07-18T02:44:32;64159.84;;;15.92;100.00
56928;BME280;60850;52.502;13.426;2022-07-18T02:47:01;64155.66;;;15.88;100.00
56928;BME280;60850;52.502;13.426;2022-07-18T02:49:27;64150.78;;;15.84;100.00
56928;BME280;60850;52.502;13.426;2022-07-18T02:51:56;64146.25;;;15.80;100.00
56928;BME280;60850;52.502;13.426;2022-07-18T02:54:24;64141.81;;;15.76;100.00
56928;BME280;60850;52.502;13.426;2022-07-18T02:56:52;64137.53;;;15.72;100.00
56928;BME280;60850;52.502;13.426;2022-07-18T02:59:19;64134.16;;;15.69;100.00
56928;BME280;60850;52.502;13.426;2022-07-18T03:01:46;64130.66;;;15.66;100.00
56928;BME280;60850;52.502;13.426;2022-07-18T03:04:16;64127.06;;;15.63;100.00
56928;BME280;60850;52.502;13.426;2022-07-18T03:06:43;64123.47;;;15.60;100.00
56928;BME280;60850;52.502;13.426;2022-07-18T03:09:10;64120.19;;;15.57;100.00
56928;BME280;60850;52.502;13.426;2022-07-18T03:11:37;64117.41;;;15.54;100.00
56928;BME280;60850;52.502;13.426;2022-07-18T03:14:04;64115.22;;;15.51;100.00
56928;BME280;60850;52.502;13.426;2022-07-18T03:16:31;64112.38;;;15.49;100.00
56928;BME280;60850;52.502;13.426;2022-07-18T03:18:58;64110.28;;;15.47;100.00
56928;BME280;60850;52.502;13.426;2022-07-18T03:21:26;64108.03;;;15.45;100.00
56928;BME280;60850;52.502;13.426;2022-07-18T03:23:53;64105.69;;;15.43;100.00
56928;BME280;60850;52.502;13.426;2022-07-18T03:26:20;64103.81;;;15.42;100.00
56928;BME280;60850;52.502;13.426;2022-07-18T03:28:47;64101.78;;;15.40;100.00
56928;BME280;60850;52.502;13.426;2022-07-18T03:31:14;64100.16;;;15.39;100.00
56928;BME280;60850;52.502;13.426;2022-07-18T03:33:41;64099.66;;;15.38;100.00
56928;BME280;60850;52.502;13.426;2022-07-18T03:36:08;64099.38;;;15.38;100.00
56928;BME280;60850;52.502;13.426;2022-07-18T03:38:37;64099.59;;;15.38;100.00
56928;BME280;60850;52.502;13.426;2022-07-18T03:41:08;64100.44;;;15.39;100.00
56928;BME280;60850;52.502;13.426;2022-07-18T03:43:36;64102.38;;;15.41;100.00
56928;BME280;60850;52.502;13.426;2022-07-18T03:46:04;64104.50;;;15.42;100.00
56928;BME280;60850;52.502;13.426;2022-07-18T03:48:31;64106.69;;;15.44;100.00
56928;BME280;60850;52.502;13.426;2022-07-18T03:50:58;64108.94;;;15.46;100.00
56928;BME280;60850;52.502;13.426;2022-07-18T03:53:25;64111.78;;;15.49;100.00
56928;BME280;60850;52.502;13.426;2022-07-18T03:55:53;64114.66;;;15.51;100.00
56928;BME280;60850;52.502;13.426;2022-07-18T03:58:20;64117.91;;;15.54;100.00
56928;BME280;60850;52.502;13.426;2022-07-18T04:00:48;64120.88;;;15.57;100.00
56928;BME280;60850;52.502;13.426;2022-07-18T04:03:17;64124.16;;;15.60;100.00
56928;BME280;60850;52.502;13.426;2022-07-18T04:05:44;64127.59;;;15.62;100.00
56928;BME280;60850;52.502;13.426;2022-07-18T04:08:11;64131.31;;;15.66;100.00
56928;BME280;60850;52.502;13.426;2022-07-18T04:10:38;64135.59;;;15.69;100.00
56928;BME280;60850;52.502;13.426;2022-07-18T04:13:07;64140.03;;;15.73;100.00
56928;BME280;60850;52.502;13.426;2022-07-18T04:15:36;64145.00;;;15.77;100.00
56928;BME280;60850;52.502;13.426;2022-07-18T04:18:05;64149.84;;;15.82;100.00
56928;BME280;60850;52.502;13.426;2022-07-18T04:20:33;64155.41;;;15.87;100.00
56928;BME280;60850;52.502;13.426;2022-07-18T04:23:01;64160.84;;;15.91;100.00
56928;BME280;60850;52.502;13.426;2022-07-18T04:25:33;64166.41;;;15.96;100.00
56928;BME280;60850;52.502;13.426;2022-07-18T04:28:01;64171.69;;;16.01;100.00
56928;BME280;60850;52.502;13.426;2022-07-18T04:30:30;64176.94;;;16.05;100.00
56928;BME280;60850;52.502;13.426;2022-07-18T04:32:57;64181.91;;;16.10;100.00
56928;BME280;60850;52.502;13.426;2022-07-18T04:35:24;64187.06;;;16.14;100.00
56928;BME280;60850;52.502;13.426;2022-07-18T04:37:51;64192.63;;;16.19;100.00
56928;BME280;60850;52.502;13.426;2022-07-18T04:40:19;64198.97;;;16.24;100.00
56928;BME280;60850;52.502;13.426;2022-07-18T04:42:46;64204.78;;;16.29;100.00
56928;BME280;60850;52.502;13.426;2022-07-18T04:45:13;64210.88;;;16.35;100.00
56928;BME280;60850;52.502;13.426;2022-07-18T04:47:42;64217.59;;;16.41;100.00
56928;BME280;60850;52.502;13.426;2022-07-18T04:50:09;64224.56;;;16.47;100.00
56928;BME280;60850;52.502;13.426;2022-07-18T04:52:37;64231.56;;;16.53;100.00
56928;BME280;60850;52.502;13.426;2022-07-18T04:55:05;64238.66;;;16.59;100.00
56928;BME280;60850;52.502;13.426;2022-07-18T04:57:33;64247.09;;;16.66;100.00
56928;BME280;60850;52.502;13.426;2022-07-18T05:00:00;64258.75;;;16.77;100.00
56928;BME280;60850;52.502;13.426;2022-07-18T05:02:26;64272.28;;;16.89;98.39
56928;BME280;60850;52.502;13.426;2022-07-18T05:04:55;64292.81;;;17.07;89.28
56928;BME280;60850;52.502;13.426;2022-07-18T05:07:22;64312.16;;;17.24;88.44
56928;BME280;60850;52.502;13.426;2022-07-18T05:09:49;64332.00;;;17.41;86.06
56928;BME280;60850;52.502;13.426;2022-07-18T05:12:16;64349.19;;;17.57;85.89
56928;BME280;60850;52.502;13.426;2022-07-18T05:14:44;64364.31;;;17.70;86.03
56928;BME280;60850;52.502;13.426;2022-07-18T05:17:11;64377.72;;;17.82;87.01
56928;BME280;60850;52.502;13.426;2022-07-18T05:19:38;64389.41;;;17.92;87.47
56928;BME280;60850;52.502;13.426;2022-07-18T05:22:06;64400.53;;;18.02;87.62
56928;BME280;60850;52.502;13.426;2022-07-18T05:24:33;64410.47;;;18.11;90.23
56928;BME280;60850;52.502;13.426;2022-07-18T05:27:00;64420.34;;;18.19;90.87
56928;BME280;60850;52.502;13.426;2022-07-18T05:29:27;64430.28;;;18.28;91.41
56928;BME280;60850;52.502;13.426;2022-07-18T05:31:54;64440.84;;;18.37;87.38
56928;BME280;60850;52.502;13.426;2022-07-18T05:34:21;64454.69;;;18.50;83.63
56928;BME280;60850;52.502;13.426;2022-07-18T05:36:48;64469.66;;;18.63;80.76
56928;BME280;60850;52.502;13.426;2022-07-18T05:39:16;64484.41;;;18.76;79.42
56928;BME280;60850;52.502;13.426;2022-07-18T05:41:43;64503.94;;;18.93;75.03
56928;BME280;60850;52.502;13.426;2022-07-18T05:44:10;64532.28;;;19.18;66.03
56928;BME280;60850;52.502;13.426;2022-07-18T05:46:37;64581.72;;;19.61;51.57
56928;BME280;60850;52.502;13.426;2022-07-18T05:49:04;64646.06;;;20.19;42.09
56928;BME280;60850;52.502;13.426;2022-07-18T05:51:31;64723.34;;;20.87;36.17
56928;BME280;60850;52.502;13.426;2022-07-18T05:53:58;64812.69;;;21.65;31.40
56928;BME280;60850;52.502;13.426;2022-07-18T05:56:26;64909.94;;;22.51;28.13
56928;BME280;60850;52.502;13.426;2022-07-18T05:58:53;65012.50;;;23.41;25.78
56928;BME280;60850;52.502;13.426;2022-07-18T06:01:20;65117.41;;;24.34;24.32
56928;BME280;60850;52.502;13.426;2022-07-18T06:03:47;65221.75;;;25.26;22.93
56928;BME280;60850;52.502;13.426;2022-07-18T06:06:14;65327.63;;;26.19;21.55
56928;BME280;60850;52.502;13.426;2022-07-18T06:08:41;65430.31;;;27.09;20.90
56928;BME280;60850;52.502;13.426;2022-07-18T06:11:08;65530.75;;;27.98;20.26
56928;BME280;60850;52.502;13.426;2022-07-18T06:13:37;65631.59;;;28.86;19.12
56928;BME280;60850;52.502;13.426;2022-07-18T06:16:06;65730.53;;;29.74;18.50
56928;BME280;60850;52.502;13.426;2022-07-18T06:18:33;65824.09;;;30.56;18.19
56928;BME280;60850;52.502;13.426;2022-07-18T06:21:01;65915.44;;;31.37;18.15
56928;BME280;60850;52.502;13.426;2022-07-18T06:23:28;66004.75;;;32.16;17.56
56928;BME280;60850;52.502;13.426;2022-07-18T06:25:55;66088.75;;;32.90;17.51
56928;BME280;60850;52.502;13.426;2022-07-18T06:28:23;66172.69;;;33.64;17.08
56928;BME280;60850;52.502;13.426;2022-07-18T06:30:52;66256.16;;;34.38;16.20
56928;BME280;60850;52.502;13.426;2022-07-18T06:33:19;66337.72;;;35.10;15.61
56928;BME280;60850;52.502;13.426;2022-07-18T06:35:46;66416.72;;;35.80;15.24
56928;BME280;60850;52.502;13.426;2022-07-18T06:38:13;66490.91;;;36.45;14.71
56928;BME280;60850;52.502;13.426;2022-07-18T06:40:40;66563.50;;;37.09;14.41
56928;BME280;60850;52.502;13.426;2022-07-18T06:43:07;66627.91;;;37.66;14.75
56928;BME280;60850;52.502;13.426;2022-07-18T06:45:34;66692.81;;;38.24;14.10
56928;BME280;60850;52.502;13.426;2022-07-18T06:48:03;66755.94;;;38.80;13.89
56928;BME280;60850;52.502;13.426;2022-07-18T06:50:30;66813.84;;;39.31;13.79
56928;BME280;60850;52.502;13.426;2022-07-18T06:52:57;66868.44;;;39.79;13.61
56928;BME280;60850;52.502;13.426;2022-07-18T06:55:23;66921.13;;;40.26;13.24
56928;BME280;60850;52.502;13.426;2022-07-18T06:57:50;66973.09;;;40.72;13.22
56928;BME280;60850;52.502;13.426;2022-07-18T07:00:17;67021.03;;;41.14;12.96
56928;BME280;60850;52.502;13.426;2022-07-18T07:02:45;67068.94;;;41.56;12.76
56928;BME280;60850;52.502;13.426;2022-07-18T07:05:14;67116.56;;;41.99;12.73
56928;BME280;60850;52.502;13.426;2022-07-18T07:07:42;67166.94;;;42.43;12.03
56928;BME280;60850;52.502;13.426;2022-07-18T07:10:09;67210.09;;;42.82;12.20
56928;BME280;60850;52.502;13.426;2022-07-18T07:12:39;67246.91;;;43.15;12.64
56928;BME280;60850;52.502;13.426;2022-07-18T07:15:07;67283.19;;;43.47;11.93
56928;BME280;60850;52.502;13.426;2022-07-18T07:17:35;67319.53;;;43.79;11.60
56928;BME280;60850;52.502;13.426;2022-07-18T07:20:03;67349.53;;;44.06;12.16
56928;BME280;60850;52.502;13.426;2022-07-18T07:22:33;67379.53;;;44.33;11.89
56928;BME280;60850;52.502;13.426;2022-07-18T07:25:08;67410.16;;;44.60;11.75
56928;BME280;60850;52.502;13.426;2022-07-18T07:27:35;67442.25;;;44.89;11.67
56928;BME280;60850;52.502;13.426;2022-07-18T07:30:02;67476.28;;;45.19;11.17
56928;BME280;60850;52.502;13.426;2022-07-18T07:32:33;67509.97;;;45.49;10.76
56928;BME280;60850;52.502;13.426;2022-07-18T07:35:00;67544.44;;;45.80;10.51
56928;BME280;60850;52.502;13.426;2022-07-18T07:37:27;67579.00;;;46.11;10.05
56928;BME280;60850;52.502;13.426;2022-07-18T07:39:55;67611.84;;;46.40;10.08
56928;BME280;60850;52.502;13.426;2022-07-18T07:42:22;67643.00;;;46.68;9.76
56928;BME280;60850;52.502;13.426;2022-07-18T07:44:49;67672.47;;;46.94;10.09
56928;BME280;60850;52.502;13.426;2022-07-18T07:47:16;67698.78;;;47.18;9.84
56928;BME280;60850;52.502;13.426;2022-07-18T07:49:43;67723.56;;;47.41;9.75
56928;BME280;60850;52.502;13.426;2022-07-18T07:52:09;67747.94;;;47.63;10.21
56928;BME280;60850;52.502;13.426;2022-07-18T07:54:37;67772.75;;;47.85;9.79
56928;BME280;60850;52.502;13.426;2022-07-18T07:57:05;67796.53;;;48.06;9.98
56928;BME280;60850;52.502;13.426;2022-07-18T07:59:32;67817.47;;;48.25;10.15
56928;BME280;60850;52.502;13.426;2022-07-18T08:01:59;67834.22;;;48.40;10.11
56928;BME280;60850;52.502;13.426;2022-07-18T08:04:26;67849.28;;;48.54;9.85
56928;BME280;60850;52.502;13.426;2022-07-18T08:06:53;67863.09;;;48.67;9.93
56928;BME280;60850;52.502;13.426;2022-07-18T08:09:20;67875.94;;;48.79;10.01
56928;BME280;60850;52.502;13.426;2022-07-18T08:11:47;67886.88;;;48.89;9.76
56928;BME280;60850;52.502;13.426;2022-07-18T08:14:15;67898.72;;;49.00;9.23
56928;BME280;60850;52.502;13.426;2022-07-18T08:16:42;67913.91;;;49.14;9.75
56928;BME280;60850;52.502;13.426;2022-07-18T08:19:09;67931.69;;;49.31;8.96
56928;BME280;60850;52.502;13.426;2022-07-18T08:21:36;67944.56;;;49.43;9.32
56928;BME280;60850;52.502;13.426;2022-07-18T08:24:03;67951.97;;;49.50;9.12
56928;BME280;60850;52.502;13.426;2022-07-18T08:26:31;67961.34;;;49.59;9.60
56928;BME280;60850;52.502;13.426;2022-07-18T08:28:59;67960.53;;;49.58;9.51
56928;BME280;60850;52.502;13.426;2022-07-18T08:31:27;67949.31;;;49.50;10.36
56928;BME280;60850;52.502;13.426;2022-07-18T08:33:54;67930.16;;;49.34;11.20
56928;BME280;60850;52.502;13.426;2022-07-18T08:36:21;67902.03;;;49.11;11.87
56928;BME280;60850;52.502;13.426;2022-07-18T08:38:48;67861.72;;;48.77;13.37
56928;BME280;60850;52.502;13.426;2022-07-18T08:41:16;67810.75;;;48.34;14.46
56928;BME280;60850;52.502;13.426;2022-07-18T08:43:44;67754.94;;;47.86;15.20
56928;BME280;60850;52.502;13.426;2022-07-18T08:46:12;67699.75;;;47.39;15.65
56928;BME280;60850;52.502;13.426;2022-07-18T08:48:41;67647.59;;;46.95;15.61
56928;BME280;60850;52.502;13.426;2022-07-18T08:51:08;67597.88;;;46.53;15.57
56928;BME280;60850;52.502;13.426;2022-07-18T08:53:36;67553.13;;;46.15;15.42
56928;BME280;60850;52.502;13.426;2022-07-18T08:56:05;67508.78;;;45.77;15.58
56928;BME280;60850;52.502;13.426;2022-07-18T08:58:32;67470.53;;;45.44;15.79
56928;BME280;60850;52.502;13.426;2022-07-18T09:00:59;67441.63;;;45.20;14.86
56928;BME280;60850;52.502;13.426;2022-07-18T09:03:26;67417.88;;;45.00;14.28
56928;BME280;60850;52.502;13.426;2022-07-18T09:06:07;67395.81;;;44.81;14.19
56928;BME280;60850;52.502;13.426;2022-07-18T09:08:34;67379.19;;;44.67;14.13
56928;BME280;60850;52.502;13.426;2022-07-18T09:11:03;67366.41;;;44.56;14.08
56928;BME280;60850;52.502;13.426;2022-07-18T09:13:36;67359.94;;;44.51;13.42
56928;BME280;60850;52.502;13.426;2022-07-18T09:16:05;67350.34;;;44.43;13.41
56928;BME280;60850;52.502;13.426;2022-07-18T09:18:34;67330.88;;;44.27;14.63
56928;BME280;60850;52.502;13.426;2022-07-18T09:21:05;67310.09;;;44.09;15.08
56928;BME280;60850;52.502;13.426;2022-07-18T09:23:34;67287.28;;;43.90;15.34
56928;BME280;60850;52.502;13.426;2022-07-18T09:26:02;67270.13;;;43.76;14.83
56928;BME280;60850;52.502;13.426;2022-07-18T09:28:45;67260.53;;;43.68;14.46
56928;BME280;60850;52.502;13.426;2022-07-18T09:31:19;67256.72;;;43.65;13.60
56928;BME280;60850;52.502;13.426;2022-07-18T09:33:53;67251.59;;;43.61;14.12
56928;BME280;60850;52.502;13.426;2022-07-18T09:36:21;67244.84;;;43.55;14.29
56928;BME280;60850;52.502;13.426;2022-07-18T09:38:48;67238.34;;;43.50;13.71
56928;BME280;60850;52.502;13.426;2022-07-18T09:41:15;67235.28;;;43.48;13.31
56928;BME280;60850;52.502;13.426;2022-07-18T09:43:42;67235.63;;;43.49;13.79
56928;BME280;60850;52.502;13.426;2022-07-18T09:46:09;67237.53;;;43.51;13.59
56928;BME280;60850;52.502;13.426;2022-07-18T09:48:36;67242.88;;;43.56;13.71
56928;BME280;60850;52.502;13.426;2022-07-18T09:51:05;67248.69;;;43.61;13.10
56928;BME280;60850;52.502;13.426;2022-07-18T09:53:35;67249.38;;;43.62;13.24
56928;BME280;60850;52.502;13.426;2022-07-18T09:56:04;67247.47;;;43.60;13.39
56928;BME280;60850;52.502;13.426;2022-07-18T09:58:33;67245.78;;;43.59;13.71
56928;BME280;60850;52.502;13.426;2022-07-18T10:01:01;67245.44;;;43.59;14.20
56928;BME280;60850;52.502;13.426;2022-07-18T10:03:29;67244.34;;;43.58;13.76
56928;BME280;60850;52.502;13.426;2022-07-18T10:05:57;67242.59;;;43.57;14.03
56928;BME280;60850;52.502;13.426;2022-07-18T10:08:27;67240.78;;;43.56;13.91
56928;BME280;60850;52.502;13.426;2022-07-18T10:10:57;67238.53;;;43.54;13.40
56928;BME280;60850;52.502;13.426;2022-07-18T10:13:26;67233.91;;;43.50;13.85
56928;BME280;60850;52.502;13.426;2022-07-18T10:15:54;67227.97;;;43.45;13.96
56928;BME280;60850;52.502;13.426;2022-07-18T10:18:23;67217.97;;;43.37;14.42
56928;BME280;60850;52.502;13.426;2022-07-18T10:20:52;67203.97;;;43.25;15.35
56928;BME280;60850;52.502;13.426;2022-07-18T10:23:24;67186.59;;;43.11;15.80
56928;BME280;60850;52.502;13.426;2022-07-18T10:26:13;67163.06;;;42.91;16.55
56928;BME280;60850;52.502;13.426;2022-07-18T10:29:08;67134.34;;;42.66;17.24
56928;BME280;60850;52.502;13.426;2022-07-18T10:31:36;67102.22;;;42.39;17.59
56928;BME280;60850;52.502;13.426;2022-07-18T10:34:11;67066.25;;;42.08;18.93
56928;BME280;60850;52.502;13.426;2022-07-18T10:36:41;67029.63;;;41.76;19.21
56928;BME280;60850;52.502;13.426;2022-07-18T10:39:34;66991.06;;;41.43;19.62
56928;BME280;60850;52.502;13.426;2022-07-18T10:42:28;66950.34;;;41.08;20.12
56928;BME280;60850;52.502;13.426;2022-07-18T10:44:56;66908.53;;;40.72;20.51
56928;BME280;60850;52.502;13.426;2022-07-18T10:47:28;66866.34;;;40.36;21.03
56928;BME280;60850;52.502;13.426;2022-07-18T10:50:06;66824.53;;;40.00;21.50
56928;BME280;60850;52.502;13.426;2022-07-18T10:52:55;66783.19;;;39.64;22.09
56928;BME280;60850;52.502;13.426;2022-07-18T10:55:29;66742.25;;;39.28;22.30
56928;BME280;60850;52.502;13.426;2022-07-18T10:58:20;66701.50;;;38.93;22.71
56928;BME280;60850;52.502;13.426;2022-07-18T11:00:52;66660.78;;;38.58;23.36
56928;BME280;60850;52.502;13.426;2022-07-18T11:03:26;66621.78;;;38.24;23.21
56928;BME280;60850;52.502;13.426;2022-07-18T11:05:55;66584.13;;;37.91;23.93
56928;BME280;60850;52.502;13.426;2022-07-18T11:08:22;66547.94;;;37.60;23.73
56928;BME280;60850;52.502;13.426;2022-07-18T11:11:11;66512.72;;;37.29;23.97
56928;BME280;60850;52.502;13.426;2022-07-18T11:13:46;66478.31;;;36.99;24.16
56928;BME280;60850;52.502;13.426;2022-07-18T11:16:21;66443.50;;;36.69;24.69
56928;BME280;60850;52.502;13.426;2022-07-18T11:19:19;66406.63;;;36.37;24.91
56928;BME280;60850;52.502;13.426;2022-07-18T11:21:47;66369.06;;;36.04;25.66
56928;BME280;60850;52.502;13.426;2022-07-18T11:24:22;66334.22;;;35.73;26.77
56928;BME280;60850;52.502;13.426;2022-07-18T11:26:50;66300.63;;;35.44;25.78
56928;BME280;60850;52.502;13.426;2022-07-18T11:29:18;66267.72;;;35.15;26.37
56928;BME280;60850;52.502;13.426;2022-07-18T11:31:48;66234.88;;;34.87;26.20
56928;BME280;60850;52.502;13.426;2022-07-18T11:34:16;66203.44;;;34.59;26.92
56928;BME280;60850;52.502;13.426;2022-07-18T11:36:44;66173.03;;;34.33;26.92
56928;BME280;60850;52.502;13.426;2022-07-18T11:39:12;66144.44;;;34.08;27.42
56928;BME280;60850;52.502;13.426;2022-07-18T11:41:40;66117.22;;;33.84;27.26
56928;BME280;60850;52.502;13.426;2022-07-18T11:44:17;66092.72;;;33.63;26.83
56928;BME280;60850;52.502;13.426;2022-07-18T11:46:46;66070.03;;;33.43;26.49
56928;BME280;60850;52.502;13.426;2022-07-18T11:49:13;66048.91;;;33.25;26.47
56928;BME280;60850;52.502;13.426;2022-07-18T11:51:41;66028.53;;;33.07;26.46
56928;BME280;60850;52.502;13.426;2022-07-18T11:54:09;66008.44;;;32.90;27.23
56928;BME280;60850;52.502;13.426;2022-07-18T11:56:45;65990.00;;;32.73;27.26
56928;BME280;60850;52.502;13.426;2022-07-18T11:59:13;65972.03;;;32.57;27.14
56928;BME280;60850;52.502;13.426;2022-07-18T12:01:42;65953.66;;;32.42;27.19
56928;BME280;60850;52.502;13.426;2022-07-18T12:04:21;65935.69;;;32.25;27.21
56928;BME280;60850;52.502;13.426;2022-07-18T12:07:13;65917.66;;;32.10;27.47
56928;BME280;60850;52.502;13.426;2022-07-18T12:09:40;65899.91;;;31.94;27.46
56928;BME280;60850;52.502;13.426;2022-07-18T12:12:08;65881.38;;;31.79;27.27
56928;BME280;60850;52.502;13.426;2022-07-18T12:14:35;65864.38;;;31.64;28.47
56928;BME280;60850;52.502;13.426;2022-07-18T12:17:05;65848.53;;;31.50;28.83
56928;BME280;60850;52.502;13.426;2022-07-18T12:19:33;65834.81;;;31.37;27.75
56928;BME280;60850;52.502;13.426;2022-07-18T12:22:06;65822.31;;;31.26;26.99
56928;BME280;60850;52.502;13.426;2022-07-18T12:24:34;65811.03;;;31.16;27.15
56928;BME280;60850;52.502;13.426;2022-07-18T12:27:19;65801.88;;;31.08;27.45
56928;BME280;60850;52.502;13.426;2022-07-18T12:30:01;65794.00;;;31.01;27.62
56928;BME280;60850;52.502;13.426;2022-07-18T12:32:38;65788.03;;;30.95;27.19
56928;BME280;60850;52.502;13.426;2022-07-18T12:35:07;65783.31;;;30.91;26.95
56928;BME280;60850;52.502;13.426;2022-07-18T12:37:35;65779.19;;;30.87;27.34
56928;BME280;60850;52.502;13.426;2022-07-18T12:40:04;65776.22;;;30.84;27.60
56928;BME280;60850;52.502;13.426;2022-07-18T12:42:33;65773.47;;;30.82;27.35
56928;BME280;60850;52.502;13.426;2022-07-18T12:45:01;65771.78;;;30.80;27.71
56928;BME280;60850;52.502;13.426;2022-07-18T12:47:28;65770.81;;;30.79;26.89
56928;BME280;60850;52.502;13.426;2022-07-18T12:49:56;65771.59;;;30.79;26.63
56928;BME280;60850;52.502;13.426;2022-07-18T12:52:23;65773.25;;;30.80;26.43
56928;BME280;60850;52.502;13.426;2022-07-18T12:54:50;65775.75;;;30.83;26.93
56928;BME280;60850;52.502;13.426;2022-07-18T12:57:18;65779.66;;;30.86;26.11